Time;durP1;ratioP1;P1;durP2;ratioP2;P2;SDS_P1;SDS_P2;PMS_P1;PMS_P2;Temp;Humidity;BMP_temperature;BMP_pressure;BME280_temperature;BME280_humidity;BME280_pressure;Samples;Min_cycle;Max_cycle;Signal;HPM_P1;HPM_P2
2022/10/24 00:00:52;;;;;;;;;;;25.10;99.90;;;;;;4194374;28;19928;-71
2022/10/24 00:02:58;;;;;;;;;;;25.20;99.90;;;;;;4195782;28;19932;-70
2022/10/24 00:05:22;;;;;;;;;;;25.20;99.90;;;;;;4186190;28;19935;-71
2022/10/24 00:07:35;;;;;;;;;;;25.10;99.90;;;;;;4194157;28;20016;-73
2022/10/24 00:09:59;;;;;;;;;;;25.20;99.90;;;;;;4206706;28;20070;-72
2022/10/24 00:12:05;;;;;;;;;;;25.20;99.90;;;;;;4209365;28;20020;-73
2022/10/24 00:14:09;;;;;;;;;;;25.40;99.90;;;;;;4194278;28;19924;-72
2022/10/24 00:16:17;;;;;;;;;;;25.40;99.90;;;;;;4195074;28;20402;-71
2022/10/24 00:18:41;;;;;;;;;;;25.30;99.90;;;;;;4193641;28;19975;-72
2022/10/24 00:20:50;;;;;;;;;;;25.40;99.90;;;;;;4192851;28;20279;-72
2022/10/24 00:22:59;;;;;;;;;;;25.50;99.90;;;;;;4193614;28;19970;-71
2022/10/24 00:25:19;;;;;;;;;;;25.50;99.90;;;;;;4191410;28;20577;-71
2022/10/24 00:27:45;;;;;;;;;;;25.50;99.90;;;;;;4183049;28;19970;-72
2022/10/24 00:29:50;;;;;;;;;;;25.60;99.90;;;;;;4194315;28;20271;-71
2022/10/24 00:32:05;;;;;;;;;;;25.50;99.90;;;;;;4175647;28;19948;-71
2022/10/24 00:34:11;;;;;;;;;;;25.50;99.90;;;;;;4201693;28;19928;-70
2022/10/24 00:36:25;;;;;;;;;;;25.60;99.90;;;;;;4205742;28;19939;-70
2022/10/24 00:38:38;;;;;;;;;;;25.60;99.90;;;;;;4191632;28;20420;-70
2022/10/24 00:41:01;;;;;;;;;;;25.60;99.90;;;;;;4191448;28;19928;-71
2022/10/24 00:43:23;;;;;;;;;;;25.60;99.90;;;;;;4190273;28;20015;-72
2022/10/24 00:45:37;;;;;;;;;;;25.60;99.90;;;;;;4191490;28;20325;-71
2022/10/24 00:47:43;;;;;;;;;;;25.70;99.90;;;;;;4191643;28;19998;-70
2022/10/24 00:49:59;;;;;;;;;;;25.80;99.90;;;;;;4190838;28;19928;-70
2022/10/24 00:52:12;;;;;;;;;;;25.80;99.90;;;;;;4206643;28;20029;-70
2022/10/24 00:54:16;;;;;;;;;;;25.90;99.90;;;;;;4191657;28;20568;-70
2022/10/24 00:56:22;;;;;;;;;;;26.00;99.80;;;;;;4185259;28;19928;-70
2022/10/24 00:58:26;;;;;;;;;;;26.00;99.70;;;;;;4189222;28;19955;-71
2022/10/24 01:00:36;;;;;;;;;;;26.10;99.30;;;;;;4187268;28;19962;-70
2022/10/24 01:03:00;;;;;;;;;;;26.10;97.10;;;;;;4193118;28;19986;-70
2022/10/24 01:05:08;;;;;;;;;;;26.20;97.50;;;;;;4174216;28;19948;-70
2022/10/24 01:07:36;;;;;;;;;;;26.20;97.00;;;;;;4172408;28;19935;-72
2022/10/24 01:10:12;;;;;;;;;;;26.30;96.30;;;;;;4177042;28;19964;-69
2022/10/24 01:12:58;;;;;;;;;;;26.40;96.00;;;;;;4199881;28;20798;-70
2022/10/24 01:15:23;;;;;;;;;;;26.50;95.50;;;;;;4184261;28;19961;-70
2022/10/24 01:17:43;;;;;;;;;;;26.50;94.50;;;;;;4186807;28;20429;-70
2022/10/24 01:20:26;;;;;;;;;;;26.60;93.80;;;;;;4191772;28;19933;-72
2022/10/24 01:22:54;;;;;;;;;;;26.60;93.50;;;;;;4158208;28;19959;-71
2022/10/24 01:25:13;;;;;;;;;;;26.60;92.80;;;;;;4162808;28;19928;-70
2022/10/24 01:27:26;;;;;;;;;;;26.70;92.30;;;;;;4170924;28;19928;-70
2022/10/24 01:29:44;;;;;;;;;;;26.70;92.10;;;;;;4170274;28;20056;-70
2022/10/24 01:32:00;;;;;;;;;;;26.80;92.10;;;;;;4159293;28;20346;-70
2022/10/24 01:34:22;;;;;;;;;;;26.80;91.80;;;;;;4159377;28;19928;-70
2022/10/24 01:36:49;;;;;;;;;;;26.90;92.10;;;;;;4154963;28;20064;-70
2022/10/24 01:38:58;;;;;;;;;;;27.00;92.00;;;;;;4148743;28;19933;-71
2022/10/24 01:41:23;;;;;;;;;;;27.00;91.90;;;;;;4131113;28;19929;-71
2022/10/24 01:43:40;;;;;;;;;;;27.10;91.50;;;;;;4151894;28;19979;-70
2022/10/24 01:45:48;;;;;;;;;;;27.10;91.30;;;;;;4173729;28;19928;-71
2022/10/24 01:47:55;;;;;;;;;;;27.10;90.40;;;;;;4145550;28;19940;-71
2022/10/24 01:50:04;;;;;;;;;;;27.20;90.60;;;;;;4159869;28;19929;-71
2022/10/24 01:52:24;;;;;;;;;;;27.20;90.60;;;;;;4164202;28;19937;-72
2022/10/24 01:54:29;;;;;;;;;;;27.30;90.60;;;;;;4174272;28;19933;-73
2022/10/24 01:56:51;;;;;;;;;;;27.30;90.50;;;;;;4161066;28;20425;-72
2022/10/24 01:59:24;;;;;;;;;;;27.30;90.40;;;;;;4188905;28;19925;-73
2022/10/24 02:01:29;;;;;;;;;;;27.40;90.20;;;;;;4189861;28;19928;-72
2022/10/24 02:03:36;;;;;;;;;;;27.40;90.20;;;;;;4172715;28;19932;-71
2022/10/24 02:05:43;;;;;;;;;;;27.50;90.40;;;;;;4206912;28;19935;-71
2022/10/24 02:08:04;;;;;;;;;;;27.60;90.10;;;;;;4205221;28;21298;-71
2022/10/24 02:10:17;;;;;;;;;;;27.60;90.00;;;;;;4207138;28;19955;-71
2022/10/24 02:12:21;;;;;;;;;;;27.60;89.90;;;;;;4173642;28;20011;-71
2022/10/24 02:14:37;;;;;;;;;;;27.70;90.10;;;;;;4212114;28;20021;-71
2022/10/24 02:16:45;;;;;;;;;;;27.70;90.20;;;;;;4196074;28;19947;-72
2022/10/24 02:18:51;;;;;;;;;;;27.70;90.00;;;;;;4192745;28;19929;-69
2022/10/24 02:20:57;;;;;;;;;;;27.80;90.20;;;;;;4178118;28;19925;-71
2022/10/24 02:23:20;;;;;;;;;;;27.90;90.30;;;;;;4196402;28;20733;-71
2022/10/24 02:25:26;;;;;;;;;;;27.90;89.90;;;;;;4212747;28;19928;-73
2022/10/24 02:27:38;;;;;;;;;;;28.00;89.70;;;;;;4211296;28;19951;-69
2022/10/24 02:29:44;;;;;;;;;;;28.00;90.30;;;;;;4209046;28;19924;-70
2022/10/24 02:31:50;;;;;;;;;;;28.10;90.10;;;;;;4209635;28;19970;-71
2022/10/24 02:33:56;;;;;;;;;;;28.10;89.90;;;;;;4158231;28;19929;-71
2022/10/24 02:36:02;;;;;;;;;;;28.20;90.00;;;;;;4194385;28;19963;-69
2022/10/24 02:38:06;;;;;;;;;;;28.20;90.00;;;;;;4197875;28;19925;-71
2022/10/24 02:40:11;;;;;;;;;;;28.20;87.80;;;;;;4193983;28;19924;-71
2022/10/24 02:42:19;;;;;;;;;;;28.20;87.50;;;;;;4210551;28;19928;-72
2022/10/24 02:44:23;;;;;;;;;;;28.30;87.10;;;;;;4196643;28;19928;-72
2022/10/24 02:46:27;;;;;;;;;;;28.30;86.80;;;;;;4192206;28;20367;-72
2022/10/24 02:48:35;;;;;;;;;;;28.40;87.60;;;;;;4210977;28;19928;-71
2022/10/24 02:50:39;;;;;;;;;;;28.40;87.20;;;;;;4193996;28;19933;-71
2022/10/24 02:52:43;;;;;;;;;;;28.50;86.50;;;;;;4211085;28;19935;-73
2022/10/24 02:54:50;;;;;;;;;;;28.50;87.80;;;;;;4193756;28;19968;-72
2022/10/24 02:56:56;;;;;;;;;;;28.60;86.50;;;;;;4180276;28;20298;-72
2022/10/24 02:59:00;;;;;;;;;;;28.60;84.20;;;;;;4211221;28;19956;-71
2022/10/24 03:01:07;;;;;;;;;;;28.70;81.70;;;;;;4195850;28;19928;-71
2022/10/24 03:03:11;;;;;;;;;;;28.70;81.50;;;;;;4200578;28;19933;-70
2022/10/24 03:05:15;;;;;;;;;;;28.70;81.10;;;;;;4194077;28;19924;-70
2022/10/24 03:07:23;;;;;;;;;;;28.80;80.40;;;;;;4197289;28;19930;-70
2022/10/24 03:09:30;;;;;;;;;;;28.80;80.20;;;;;;4195225;28;19933;-69
2022/10/24 03:11:35;;;;;;;;;;;28.80;79.90;;;;;;4192633;28;19935;-70
2022/10/24 03:13:52;;;;;;;;;;;28.90;79.50;;;;;;4206040;28;19932;-71
2022/10/24 03:15:59;;;;;;;;;;;28.90;80.50;;;;;;4176066;28;20010;-71
2022/10/24 03:18:03;;;;;;;;;;;29.00;80.90;;;;;;4190070;28;19932;-71
2022/10/24 03:20:09;;;;;;;;;;;29.00;80.40;;;;;;4178746;28;19933;-73
2022/10/24 03:22:15;;;;;;;;;;;29.10;79.60;;;;;;4194683;28;19932;-71
2022/10/24 03:24:19;;;;;;;;;;;29.20;79.60;;;;;;4208869;28;19924;-73
2022/10/24 03:26:45;;;;;;;;;;;29.10;79.20;;;;;;4192470;28;20055;-73
2022/10/24 03:28:49;;;;;;;;;;;29.20;78.70;;;;;;4194500;28;19932;-72
2022/10/24 03:30:55;;;;;;;;;;;29.20;78.20;;;;;;4193764;28;19928;-69
2022/10/24 03:33:03;;;;;;;;;;;29.20;78.20;;;;;;4194611;28;19960;-71
2022/10/24 03:35:07;;;;;;;;;;;29.30;77.80;;;;;;4192309;28;19974;-69
2022/10/24 03:37:16;;;;;;;;;;;29.40;77.10;;;;;;4194085;28;19931;-68
2022/10/24 03:39:24;;;;;;;;;;;29.40;76.80;;;;;;4209441;28;19928;-70
2022/10/24 03:41:28;;;;;;;;;;;29.40;76.70;;;;;;4192286;28;20290;-69
2022/10/24 03:43:32;;;;;;;;;;;29.40;77.20;;;;;;4209122;28;19928;-71
2022/10/24 03:45:38;;;;;;;;;;;29.50;77.10;;;;;;4192745;28;19929;-71
2022/10/24 03:47:42;;;;;;;;;;;29.50;77.70;;;;;;4194461;28;19974;-70
2022/10/24 03:49:46;;;;;;;;;;;29.50;76.50;;;;;;4194414;28;20508;-69
2022/10/24 03:51:52;;;;;;;;;;;29.60;76.50;;;;;;4192249;28;20385;-71
2022/10/24 03:53:56;;;;;;;;;;;29.60;76.80;;;;;;4194160;28;19964;-70
2022/10/24 03:56:00;;;;;;;;;;;29.60;76.60;;;;;;4193392;28;19932;-71
2022/10/24 03:58:05;;;;;;;;;;;29.60;77.40;;;;;;4193984;28;19968;-69
2022/10/24 04:00:09;;;;;;;;;;;29.60;76.70;;;;;;4189757;28;20389;-69
2022/10/24 04:02:14;;;;;;;;;;;29.70;76.40;;;;;;4183965;28;19943;-71
2022/10/24 04:04:18;;;;;;;;;;;29.70;76.10;;;;;;4208168;28;20404;-71
2022/10/24 04:06:21;;;;;;;;;;;29.80;75.20;;;;;;4191755;28;19978;-71
2022/10/24 04:08:26;;;;;;;;;;;29.90;76.30;;;;;;4188641;28;19931;-69
2022/10/24 04:10:31;;;;;;;;;;;29.90;76.60;;;;;;4189904;28;19933;-70
2022/10/24 04:12:41;;;;;;;;;;;29.90;75.80;;;;;;4189310;28;19942;-71
2022/10/24 04:14:45;;;;;;;;;;;29.90;76.30;;;;;;4185701;28;20044;-71
2022/10/24 04:16:51;;;;;;;;;;;30.00;76.00;;;;;;4191219;28;19925;-71
2022/10/24 04:18:56;;;;;;;;;;;29.90;75.60;;;;;;4182138;28;19986;-70
2022/10/24 04:21:00;;;;;;;;;;;30.00;75.70;;;;;;4188078;28;19928;-72
2022/10/24 04:23:07;;;;;;;;;;;30.00;75.60;;;;;;4203906;28;19924;-70
2022/10/24 04:25:11;;;;;;;;;;;30.00;75.50;;;;;;4207194;28;19974;-71
2022/10/24 04:27:16;;;;;;;;;;;30.10;75.40;;;;;;4206015;28;20365;-70
2022/10/24 04:29:22;;;;;;;;;;;30.10;75.90;;;;;;4192320;28;19924;-70
2022/10/24 04:31:26;;;;;;;;;;;30.20;75.50;;;;;;4185657;28;19929;-70
2022/10/24 04:33:30;;;;;;;;;;;30.20;76.10;;;;;;4192672;28;20014;-71
2022/10/24 04:35:39;;;;;;;;;;;30.20;75.40;;;;;;4191476;28;19972;-71
2022/10/24 04:37:44;;;;;;;;;;;30.30;74.90;;;;;;4202007;28;19932;-72
2022/10/24 04:39:48;;;;;;;;;;;30.20;75.70;;;;;;4191886;28;19924;-72
2022/10/24 04:41:52;;;;;;;;;;;30.30;76.00;;;;;;4194206;28;20031;-71
2022/10/24 04:43:56;;;;;;;;;;;30.40;74.80;;;;;;4189885;28;19956;-72
2022/10/24 04:46:01;;;;;;;;;;;30.50;74.90;;;;;;4209683;28;20564;-71
2022/10/24 04:48:09;;;;;;;;;;;30.50;74.60;;;;;;4207180;28;19931;-72
2022/10/24 04:50:13;;;;;;;;;;;30.60;74.60;;;;;;4193955;28;19930;-72
2022/10/24 04:52:17;;;;;;;;;;;30.60;74.60;;;;;;4192297;28;20023;-69
2022/10/24 04:54:25;;;;;;;;;;;30.60;75.10;;;;;;4194998;28;19928;-70
2022/10/24 04:56:30;;;;;;;;;;;30.60;74.00;;;;;;4195164;28;19979;-72
2022/10/24 04:58:34;;;;;;;;;;;30.60;75.00;;;;;;4191818;28;20458;-69
2022/10/24 05:00:45;;;;;;;;;;;30.70;75.20;;;;;;4194684;28;20758;-71
2022/10/24 05:02:49;;;;;;;;;;;30.70;74.80;;;;;;4184940;28;19928;-71
2022/10/24 05:04:58;;;;;;;;;;;30.70;73.10;;;;;;4192570;28;19929;-70
2022/10/24 05:07:08;;;;;;;;;;;30.80;73.30;;;;;;4193942;28;20019;-71
2022/10/24 05:09:13;;;;;;;;;;;30.80;73.90;;;;;;4193170;28;19932;-71
2022/10/24 05:11:17;;;;;;;;;;;30.80;74.30;;;;;;4206915;28;19959;-72
2022/10/24 05:13:24;;;;;;;;;;;30.80;74.40;;;;;;4194139;28;19924;-70
2022/10/24 05:15:29;;;;;;;;;;;30.80;75.30;;;;;;4192883;28;20031;-73
2022/10/24 05:17:34;;;;;;;;;;;30.90;75.20;;;;;;4208600;28;19934;-71
2022/10/24 05:19:40;;;;;;;;;;;30.90;73.90;;;;;;4205538;28;20030;-72
2022/10/24 05:21:44;;;;;;;;;;;31.00;75.30;;;;;;4185631;28;20010;-72
2022/10/24 05:23:51;;;;;;;;;;;31.20;74.40;;;;;;4190404;28;19935;-72
2022/10/24 05:25:55;;;;;;;;;;;31.10;72.60;;;;;;4188411;28;20734;-73
2022/10/24 05:27:59;;;;;;;;;;;31.10;73.40;;;;;;4190774;28;19971;-72
2022/10/24 05:30:03;;;;;;;;;;;31.20;73.60;;;;;;4191121;28;19958;-70
2022/10/24 05:32:10;;;;;;;;;;;31.10;73.00;;;;;;4183023;28;19929;-71
2022/10/24 05:34:14;;;;;;;;;;;31.10;73.00;;;;;;4189158;28;19983;-70
2022/10/24 05:36:20;;;;;;;;;;;31.20;74.40;;;;;;4204322;28;19945;-70
2022/10/24 05:38:25;;;;;;;;;;;31.20;74.30;;;;;;4205555;28;20398;-71
2022/10/24 05:40:29;;;;;;;;;;;31.30;73.60;;;;;;4193406;28;20020;-71
2022/10/24 05:42:33;;;;;;;;;;;31.20;73.10;;;;;;4193244;28;20150;-73
2022/10/24 05:44:40;;;;;;;;;;;31.30;73.40;;;;;;4192491;28;19932;-73
2022/10/24 05:46:44;;;;;;;;;;;31.20;73.70;;;;;;4192775;28;19982;-73
2022/10/24 05:48:47;;;;;;;;;;;31.30;73.50;;;;;;4192234;28;19924;-72
2022/10/24 05:50:55;;;;;;;;;;;31.30;73.60;;;;;;4193081;28;19939;-72
2022/10/24 05:52:59;;;;;;;;;;;31.30;73.80;;;;;;4186492;28;20371;-71
2022/10/24 05:55:04;;;;;;;;;;;31.40;74.10;;;;;;4191432;28;19931;-69
2022/10/24 05:57:13;;;;;;;;;;;31.40;73.90;;;;;;4204072;28;19924;-72
2022/10/24 05:59:17;;;;;;;;;;;31.40;74.40;;;;;;4178630;28;20015;-70
2022/10/24 06:01:21;;;;;;;;;;;31.50;74.10;;;;;;4187583;28;19932;-70
2022/10/24 06:03:30;;;;;;;;;;;31.50;73.20;;;;;;4196047;28;19931;-70
2022/10/24 06:05:34;;;;;;;;;;;31.40;73.30;;;;;;4223247;28;19924;-70
2022/10/24 06:07:40;;;;;;;;;;;31.40;73.60;;;;;;4174433;28;19925;-71
2022/10/24 06:09:47;;;;;;;;;;;31.50;74.60;;;;;;4171938;28;20019;-69
2022/10/24 06:11:52;;;;;;;;;;;31.50;74.50;;;;;;4184679;28;19936;-68
2022/10/24 06:13:56;;;;;;;;;;;31.50;73.50;;;;;;4197072;28;19935;-72
2022/10/24 06:16:02;;;;;;;;;;;31.50;74.10;;;;;;4197752;28;19928;-70
2022/10/24 06:18:07;;;;;;;;;;;31.50;74.50;;;;;;4200974;28;19928;-69
2022/10/24 06:20:15;;;;;;;;;;;31.50;73.90;;;;;;4184888;28;19924;-69
2022/10/24 06:22:39;;;;;;;;;;;31.60;75.30;;;;;;4193925;28;20379;-72
2022/10/24 06:24:46;;;;;;;;;;;31.60;75.70;;;;;;4201237;28;19936;-69
2022/10/24 06:26:50;;;;;;;;;;;31.70;74.40;;;;;;4189722;28;19932;-70
2022/10/24 06:28:56;;;;;;;;;;;31.70;74.50;;;;;;4208178;28;19942;-69
2022/10/24 06:31:02;;;;;;;;;;;31.70;73.70;;;;;;4185921;28;20410;-69
2022/10/24 06:33:08;;;;;;;;;;;31.70;73.50;;;;;;4193050;28;19935;-68
2022/10/24 06:35:14;;;;;;;;;;;31.70;75.10;;;;;;4184135;28;19967;-72
2022/10/24 06:37:19;;;;;;;;;;;31.80;75.40;;;;;;4193800;28;19932;-67
2022/10/24 06:39:24;;;;;;;;;;;31.80;74.60;;;;;;4207628;28;19928;-69
2022/10/24 06:41:30;;;;;;;;;;;31.80;74.80;;;;;;4196956;28;19981;-68
2022/10/24 06:43:35;;;;;;;;;;;31.80;74.80;;;;;;4220129;28;19940;-69
2022/10/24 06:45:40;;;;;;;;;;;31.80;74.10;;;;;;4203321;28;20061;-69
2022/10/24 06:47:44;;;;;;;;;;;31.80;74.10;;;;;;4184372;28;19935;-69
2022/10/24 06:49:53;;;;;;;;;;;31.80;73.80;;;;;;4192642;28;19924;-69
2022/10/24 06:51:57;;;;;;;;;;;31.80;73.60;;;;;;4191188;28;19924;-69
2022/10/24 06:54:04;;;;;;;;;;;31.80;74.00;;;;;;4192461;28;19925;-69
2022/10/24 06:56:08;;;;;;;;;;;31.80;73.50;;;;;;4187544;28;19932;-69
2022/10/24 06:58:13;;;;;;;;;;;31.90;73.80;;;;;;4189767;28;19928;-68
2022/10/24 07:00:22;;;;;;;;;;;31.90;73.80;;;;;;4198286;28;20055;-69
2022/10/24 07:02:27;;;;;;;;;;;31.90;73.50;;;;;;4194411;28;19929;-68
2022/10/24 07:04:31;;;;;;;;;;;31.90;73.60;;;;;;4210582;28;20014;-69
2022/10/24 07:06:38;;;;;;;;;;;31.90;73.70;;;;;;4193535;28;19925;-68
2022/10/24 07:08:43;;;;;;;;;;;32.00;73.60;;;;;;4194609;28;19936;-69
2022/10/24 07:10:47;;;;;;;;;;;31.90;73.80;;;;;;4191487;28;19924;-71
2022/10/24 07:12:55;;;;;;;;;;;32.00;73.80;;;;;;4194047;28;19928;-71
2022/10/24 07:14:59;;;;;;;;;;;32.00;73.90;;;;;;4175396;28;19929;-69
2022/10/24 07:17:04;;;;;;;;;;;32.10;74.50;;;;;;4176315;28;19929;-71
2022/10/24 07:19:11;;;;;;;;;;;32.10;74.60;;;;;;4161150;28;20401;-70
2022/10/24 07:21:19;;;;;;;;;;;32.10;74.70;;;;;;4210430;28;19932;-71
2022/10/24 07:23:23;;;;;;;;;;;32.10;74.70;;;;;;4178627;28;19934;-70
2022/10/24 07:25:34;;;;;;;;;;;32.10;74.20;;;;;;4161159;28;19933;-68
2022/10/24 07:27:41;;;;;;;;;;;32.10;73.60;;;;;;4204575;28;19928;-71
2022/10/24 07:29:46;;;;;;;;;;;32.00;73.60;;;;;;4176571;28;19935;-72
2022/10/24 07:31:54;;;;;;;;;;;32.00;73.50;;;;;;4177154;28;19929;-70
2022/10/24 07:33:59;;;;;;;;;;;32.00;73.50;;;;;;4176315;28;19925;-70
2022/10/24 07:36:06;;;;;;;;;;;32.00;73.60;;;;;;4177449;28;19929;-70
2022/10/24 07:38:13;;;;;;;;;;;32.10;73.70;;;;;;4212601;28;20433;-70
2022/10/24 07:40:21;;;;;;;;;;;32.10;74.50;;;;;;4194978;28;19960;-70
2022/10/24 07:42:25;;;;;;;;;;;32.10;74.60;;;;;;4197220;28;19929;-69
2022/10/24 07:44:32;;;;;;;;;;;32.10;74.60;;;;;;4194239;28;20290;-71
2022/10/24 07:46:36;;;;;;;;;;;32.10;74.70;;;;;;4206730;28;19963;-70
2022/10/24 07:48:41;;;;;;;;;;;32.10;75.60;;;;;;4188405;28;19928;-70
2022/10/24 07:50:48;;;;;;;;;;;32.10;75.00;;;;;;4177775;28;19925;-69
2022/10/24 07:52:52;;;;;;;;;;;32.20;75.10;;;;;;4195390;28;19947;-69
2022/10/24 07:54:57;;;;;;;;;;;32.20;74.80;;;;;;4204945;28;19978;-70
2022/10/24 07:57:03;;;;;;;;;;;32.20;74.80;;;;;;4189304;28;19968;-70
2022/10/24 07:59:08;;;;;;;;;;;32.10;73.60;;;;;;4192832;28;20274;-70
2022/10/24 08:01:32;;;;;;;;;;;32.10;73.60;;;;;;4201936;28;19928;-71
2022/10/24 08:03:40;;;;;;;;;;;32.10;73.70;;;;;;4174833;28;19933;-70
2022/10/24 08:05:47;;;;;;;;;;;32.00;74.10;;;;;;4192771;28;20015;-70
2022/10/24 08:07:52;;;;;;;;;;;32.10;74.40;;;;;;4196571;28;19940;-66
2022/10/24 08:10:16;;;;;;;;;;;32.10;74.70;;;;;;4200683;28;19932;-67
2022/10/24 08:12:20;;;;;;;;;;;32.10;73.80;;;;;;4192100;28;20006;-68
2022/10/24 08:14:44;;;;;;;;;;;32.00;74.00;;;;;;4205763;28;19928;-68
2022/10/24 08:16:50;;;;;;;;;;;32.10;73.70;;;;;;4192836;28;20348;-70
2022/10/24 08:18:55;;;;;;;;;;;32.10;74.00;;;;;;4179883;28;19933;-70
2022/10/24 08:21:04;;;;;;;;;;;32.10;74.20;;;;;;4182536;28;19928;-69
2022/10/24 08:23:13;;;;;;;;;;;32.10;74.10;;;;;;4205625;28;20039;-69
2022/10/24 08:25:18;;;;;;;;;;;32.10;74.00;;;;;;4192320;28;19929;-69
2022/10/24 08:27:26;;;;;;;;;;;32.00;73.60;;;;;;4192190;28;19928;-69
2022/10/24 08:29:52;;;;;;;;;;;32.10;73.80;;;;;;4166268;28;19933;-68
2022/10/24 08:32:08;;;;;;;;;;;32.10;74.20;;;;;;4191936;28;19929;-70
2022/10/24 08:34:13;;;;;;;;;;;32.10;75.00;;;;;;4192085;28;19936;-71
2022/10/24 08:36:24;;;;;;;;;;;32.10;74.80;;;;;;4191507;28;19928;-70
2022/10/24 08:38:29;;;;;;;;;;;32.10;75.20;;;;;;4181598;28;19932;-69
2022/10/24 08:40:33;;;;;;;;;;;32.10;75.40;;;;;;4192058;28;19925;-70
2022/10/24 08:42:38;;;;;;;;;;;32.10;75.80;;;;;;4190360;28;19990;-70
2022/10/24 08:44:43;;;;;;;;;;;32.00;75.40;;;;;;4189895;28;19936;-71
2022/10/24 08:46:49;;;;;;;;;;;32.00;74.70;;;;;;4204071;28;19969;-71
2022/10/24 08:49:04;;;;;;;;;;;32.00;75.50;;;;;;4190831;28;19928;-70
2022/10/24 08:51:33;;;;;;;;;;;32.00;75.60;;;;;;4206024;28;19954;-72
2022/10/24 08:53:37;;;;;;;;;;;31.90;75.50;;;;;;4179969;28;19954;-71
2022/10/24 08:55:53;;;;;;;;;;;32.00;75.90;;;;;;4165907;28;19928;-70
2022/10/24 08:57:58;;;;;;;;;;;31.90;75.50;;;;;;4212449;28;19967;-70
2022/10/24 09:00:16;;;;;;;;;;;31.90;75.70;;;;;;4192042;28;19967;-69
2022/10/24 09:02:26;;;;;;;;;;;31.90;75.90;;;;;;4209332;28;19928;-69
2022/10/24 09:04:38;;;;;;;;;;;31.90;76.40;;;;;;4224215;28;20445;-69
2022/10/24 09:06:43;;;;;;;;;;;31.90;76.40;;;;;;4214656;28;19977;-69
2022/10/24 09:08:51;;;;;;;;;;;31.90;76.60;;;;;;4190557;28;19950;-71
2022/10/24 09:10:59;;;;;;;;;;;31.90;76.90;;;;;;4192701;28;19981;-71
2022/10/24 09:13:07;;;;;;;;;;;31.90;77.00;;;;;;4179261;28;19955;-69
2022/10/24 09:15:33;;;;;;;;;;;31.80;77.00;;;;;;4207829;28;19984;-70
2022/10/24 09:17:41;;;;;;;;;;;31.80;76.40;;;;;;4192086;28;19928;-71
2022/10/24 09:19:49;;;;;;;;;;;31.80;76.00;;;;;;4201349;28;20298;-71
2022/10/24 09:21:57;;;;;;;;;;;31.80;76.50;;;;;;4207101;28;20015;-70
2022/10/24 09:24:01;;;;;;;;;;;31.80;76.60;;;;;;4176435;28;20314;-72
2022/10/24 09:26:07;;;;;;;;;;;31.70;77.20;;;;;;4205171;28;20324;-70
2022/10/24 09:28:13;;;;;;;;;;;31.70;77.70;;;;;;4207420;28;20301;-70
2022/10/24 09:30:19;;;;;;;;;;;31.70;77.60;;;;;;4191732;28;19934;-71
2022/10/24 09:32:30;;;;;;;;;;;31.70;77.70;;;;;;4181690;28;20626;-71
2022/10/24 09:34:35;;;;;;;;;;;31.70;78.00;;;;;;4191413;28;20306;-70
2022/10/24 09:36:42;;;;;;;;;;;31.60;78.10;;;;;;4188693;28;19928;-70
2022/10/24 09:38:47;;;;;;;;;;;31.60;78.10;;;;;;4174627;28;19925;-71
2022/10/24 09:40:54;;;;;;;;;;;31.60;77.60;;;;;;4170483;28;19939;-70
2022/10/24 09:43:13;;;;;;;;;;;31.60;77.90;;;;;;4189745;28;19944;-69
2022/10/24 09:45:20;;;;;;;;;;;31.60;78.30;;;;;;4174657;28;19936;-69
2022/10/24 09:47:29;;;;;;;;;;;31.50;78.40;;;;;;4191885;28;19932;-69
2022/10/24 09:49:34;;;;;;;;;;;31.50;78.70;;;;;;4191758;28;19924;-71
2022/10/24 09:51:40;;;;;;;;;;;31.50;78.90;;;;;;4189853;28;19934;-72
2022/10/24 09:54:06;;;;;;;;;;;31.50;78.90;;;;;;4174550;28;20023;-68
2022/10/24 09:56:11;;;;;;;;;;;31.40;79.10;;;;;;4191121;28;19924;-70
2022/10/24 09:58:19;;;;;;;;;;;31.40;79.40;;;;;;4189242;28;19928;-71
2022/10/24 10:00:27;;;;;;;;;;;31.40;79.50;;;;;;4190833;28;19924;-70
2022/10/24 10:02:35;;;;;;;;;;;31.40;79.60;;;;;;4189085;28;19993;-71
2022/10/24 10:04:39;;;;;;;;;;;31.40;79.40;;;;;;4174557;28;19928;-73
2022/10/24 10:06:44;;;;;;;;;;;31.30;79.60;;;;;;4188696;28;19928;-71
2022/10/24 10:08:48;;;;;;;;;;;31.30;79.40;;;;;;4189146;28;19950;-72
2022/10/24 10:11:10;;;;;;;;;;;31.20;79.70;;;;;;4192153;28;20055;-72
2022/10/24 10:13:14;;;;;;;;;;;31.20;79.90;;;;;;4191964;28;19932;-69
2022/10/24 10:15:18;;;;;;;;;;;31.20;80.00;;;;;;4208074;28;19924;-71
2022/10/24 10:17:23;;;;;;;;;;;31.10;79.80;;;;;;4193320;28;19925;-69
2022/10/24 10:19:31;;;;;;;;;;;31.10;80.30;;;;;;4208632;28;19938;-71
2022/10/24 10:21:54;;;;;;;;;;;31.10;81.00;;;;;;4204885;28;20424;-71
2022/10/24 10:24:00;;;;;;;;;;;31.10;80.30;;;;;;4192152;28;20438;-71
2022/10/24 10:26:21;;;;;;;;;;;31.00;80.10;;;;;;4175984;28;19932;-72
2022/10/24 10:28:27;;;;;;;;;;;31.00;79.80;;;;;;4193211;28;20021;-71
2022/10/24 10:30:33;;;;;;;;;;;30.90;79.90;;;;;;4192942;28;20321;-72
2022/10/24 10:32:43;;;;;;;;;;;30.90;80.40;;;;;;4192450;28;19951;-72
2022/10/24 10:34:59;;;;;;;;;;;30.90;80.70;;;;;;4195805;28;19936;-70
2022/10/24 10:37:18;;;;;;;;;;;30.90;80.90;;;;;;4191833;28;19983;-71
2022/10/24 10:39:40;;;;;;;;;;;30.80;81.30;;;;;;4196733;28;19924;-71
2022/10/24 10:41:56;;;;;;;;;;;30.80;81.10;;;;;;4196031;28;20391;-72
2022/10/24 10:44:19;;;;;;;;;;;30.70;81.50;;;;;;4179778;28;19925;-72
2022/10/24 10:46:28;;;;;;;;;;;30.70;82.30;;;;;;4178850;28;19952;-71
2022/10/24 10:48:51;;;;;;;;;;;30.60;82.50;;;;;;4195971;28;20382;-74
2022/10/24 10:50:57;;;;;;;;;;;30.60;82.70;;;;;;4201162;28;19938;-72
2022/10/24 10:53:27;;;;;;;;;;;30.60;82.70;;;;;;4199190;28;19973;-73
2022/10/24 10:55:38;;;;;;;;;;;30.60;83.00;;;;;;4179579;28;20023;-72
2022/10/24 10:57:48;;;;;;;;;;;30.60;83.60;;;;;;4178940;28;19932;-72
2022/10/24 10:59:57;;;;;;;;;;;30.50;83.90;;;;;;4186717;28;19932;-72
2022/10/24 11:02:14;;;;;;;;;;;30.40;84.00;;;;;;4176635;28;19929;-71
2022/10/24 11:04:21;;;;;;;;;;;30.40;83.80;;;;;;4195282;28;20031;-71
2022/10/24 11:06:45;;;;;;;;;;;30.40;84.00;;;;;;4209381;28;20011;-71
2022/10/24 11:08:55;;;;;;;;;;;30.40;84.30;;;;;;4191398;28;19924;-71
2022/10/24 11:11:00;;;;;;;;;;;30.40;84.40;;;;;;4192354;28;19935;-71
2022/10/24 11:13:10;;;;;;;;;;;30.40;84.20;;;;;;4188738;28;20005;-71
2022/10/24 11:15:28;;;;;;;;;;;30.30;84.30;;;;;;4193026;28;19929;-72
2022/10/24 11:17:32;;;;;;;;;;;30.30;84.80;;;;;;4207526;28;20406;-73
2022/10/24 11:19:40;;;;;;;;;;;30.30;84.80;;;;;;4194806;28;19932;-72
2022/10/24 11:21:46;;;;;;;;;;;30.20;85.00;;;;;;4160009;28;20407;-71
2022/10/24 11:23:53;;;;;;;;;;;30.20;85.20;;;;;;4165444;28;19928;-71
2022/10/24 11:26:26;;;;;;;;;;;30.20;85.40;;;;;;4204539;28;19938;-72
2022/10/24 11:28:32;;;;;;;;;;;30.20;85.60;;;;;;4187239;28;20154;-72
2022/10/24 11:30:57;;;;;;;;;;;30.10;85.90;;;;;;4164100;28;19933;-72
2022/10/24 11:33:05;;;;;;;;;;;30.10;86.10;;;;;;4194440;28;19928;-72
2022/10/24 11:35:12;;;;;;;;;;;30.10;86.40;;;;;;4193690;28;19939;-71
2022/10/24 11:37:15;;;;;;;;;;;30.10;86.70;;;;;;4193798;28;19936;-70
2022/10/24 11:39:19;;;;;;;;;;;30.00;87.20;;;;;;4209763;28;20362;-71
2022/10/24 11:41:34;;;;;;;;;;;30.00;87.40;;;;;;4193479;28;20289;-71
2022/10/24 11:43:42;;;;;;;;;;;30.00;87.70;;;;;;4194178;28;19928;-71
2022/10/24 11:45:47;;;;;;;;;;;30.00;88.10;;;;;;4192945;28;20408;-71
2022/10/24 11:48:04;;;;;;;;;;;30.00;88.40;;;;;;4192097;28;19956;-72
2022/10/24 11:50:20;;;;;;;;;;;29.90;88.60;;;;;;4208534;28;19931;-71
2022/10/24 11:52:28;;;;;;;;;;;29.90;88.80;;;;;;4192375;28;19932;-69
2022/10/24 11:54:43;;;;;;;;;;;29.90;89.10;;;;;;4191501;28;19944;-72
2022/10/24 11:57:11;;;;;;;;;;;29.80;89.80;;;;;;4209314;28;20275;-75
2022/10/24 11:59:18;;;;;;;;;;;29.80;90.00;;;;;;4173391;28;19936;-73
2022/10/24 12:01:37;;;;;;;;;;;29.70;90.20;;;;;;4194047;28;20027;-72
2022/10/24 12:03:41;;;;;;;;;;;29.70;90.30;;;;;;4176245;28;20553;-72
2022/10/24 12:05:58;;;;;;;;;;;29.70;90.40;;;;;;4194516;28;19998;-72
2022/10/24 12:08:10;;;;;;;;;;;29.60;90.40;;;;;;4208032;28;19928;-73
2022/10/24 12:10:33;;;;;;;;;;;29.60;90.50;;;;;;4192961;28;19928;-71
2022/10/24 12:13:11;;;;;;;;;;;29.60;90.80;;;;;;4175603;28;19964;-71
2022/10/24 12:15:27;;;;;;;;;;;29.50;90.90;;;;;;4137318;28;19929;-72
2022/10/24 12:17:45;;;;;;;;;;;29.50;90.80;;;;;;4142983;28;19932;-71
2022/10/24 12:19:53;;;;;;;;;;;29.50;90.80;;;;;;4151120;28;19960;-72
2022/10/24 12:22:00;;;;;;;;;;;29.50;90.80;;;;;;4105327;28;19926;-72
2022/10/24 12:24:05;;;;;;;;;;;29.40;90.80;;;;;;4126081;28;20207;-72
2022/10/24 12:26:13;;;;;;;;;;;29.50;90.70;;;;;;4142330;28;19964;-73
2022/10/24 12:28:22;;;;;;;;;;;29.40;90.80;;;;;;4126519;28;20376;-73
2022/10/24 12:30:26;;;;;;;;;;;29.40;90.80;;;;;;4124037;28;19933;-72
2022/10/24 12:32:34;;;;;;;;;;;29.40;90.80;;;;;;4141888;28;19952;-73